Medellin, Colombia

1:45 PM COT on August 04, 2015 (GMT -0500)
Olaya Herrera | | Change Station
CLOSE
Current Station
Airport
Location: Medellin,
Elevation: 4918 ft
Nearby Weather Stations

Elev 4918 ft 6.22 °N, 75.59 °W | Updated 45 minutes ago

Scattered Clouds
Scattered Clouds
86 °F
Feels Like 86 °F
N
10
Wind Variable Wind from SSE

Today
High -- | Low -- °F
--% Chance of Precip.
Yesterday
High -- | Low -- °F
Precip. -- in
5:57 AM 6:19 PM
Waning Gibbous, 75% visible
Pressure 30.06 in
Visibility 6.2 miles
Clouds Few 4000 ft
Scattered Clouds 20000 ft
Dew Point 52 °F
Humidity 31%
Rainfall 0.00 in
Snow Depth Not available.
UV 14 out of 12
Pollen Not available.
Air Quality Not available.
Flu Activity Not available.
METAR SKMD 041800Z 15009KT 9999 FEW040 SCT200 30/11 A3006

More Conditions Fewer Conditions

Pressure 30.06 in
Visibility 6.2 miles
Clouds Few 4000 ft
Scattered Clouds 20000 ft
Dew Point 52 °F
Humidity 31%
Rainfall 0.00 in
Snow Depth Not available.
UV 14 out of 12
Pollen Not available.
Air Quality Not available.
Flu Activity Not available.
METAR SKMD 041800Z 15009KT 9999 FEW040 SCT200 30/11 A3006

More Conditions Fewer Conditions

10-Day Weather Forecast

×

Almanac

Astronomy

Aug. 04, 2015 Rise Set
Actual Time
Civil Twilight
Nautical Twilight
Astronomical Twilight
Moon
Length of Visible Light
Length of Day
Tomorrow will be .
, % of the Moon is Illuminated

Today's Extremes

Country Highs Country Lows

Community

WunderPhotos

Upload Photos

1,843,937 photos uploaded!

WunderBlogs® & News

Nearby

Air Quality

  Air Quality AQ Index Pollutant
Not available.

Snow Depth

Station Depth Elevation

Earthquake Activity

City Distance Mag. Time & Date
Minimum magnitude displayed is 2.5.

Coastal Water Temperatures

Place Temperature

Stations

Nearby Weather Stations

Station Location Temp. Windchill Dew Point Humidity Wind Precip. Elev Updated Type